Sv.trijaya 2 — PNXR — position and weather

sailwx.info

Track history (hours):
 
Tides and Currents Weather Stations Pressure Air Temp Water Temp Dewpoint Dewpoint Depression Visibility Wind Speed Wind Dir Waves Ship Positions

Sv.trijaya 2

Last reported at 2018-Apr-24 16:53 UTC. Time now 2018-Apr-24 18:31 UTC.
Position S 06°52' E 113°02'.

; draft 3 m.

Type: Tug. MMSI: 525015849.

Date/timePositionNaut miles runAvg speedWind from/ knotsBaromVisibWave heightAir tempDewpointWater temp
2018-Apr-24 16:53S 06°52' E 113°02'0 0.0
2018-Apr-24 16:17S 06°52' E 113°02'0 0.0
2018-Apr-24 15:59S 06°52' E 113°02'0 0.0
2018-Apr-24 15:30S 06°52' E 113°02'0 0.0
2018-Apr-24 14:59S 06°52' E 113°02'0 0.0
2018-Apr-24 14:25S 06°52' E 113°02'0 0.0
2018-Apr-24 13:11S 06°52' E 113°02'0 0.0
2018-Apr-24 12:49S 06°52' E 113°02'0 0.0
2018-Apr-24 12:22S 06°52' E 113°02'0 0.0
2018-Apr-24 12:00S 06°52' E 113°02'0 0.0
2018-Apr-24 11:25S 06°52' E 113°02'0 0.0
2018-Apr-24 10:55S 06°52' E 113°02'0 0.0
2018-Apr-24 10:11S 06°52' E 113°02'0 0.0
2018-Apr-24 09:52S 06°52' E 113°02'0 0.0
2018-Apr-24 09:19S 06°52' E 113°02'0 0.0
2018-Apr-24 03:43S 06°52' E 113°02'0 0.1
2018-Apr-24 02:47S 06°52' E 113°02'1 0.0
2018-Apr-22 18:14S 06°51' E 113°01'1 5.4
2018-Apr-22 18:00S 06°50' E 113°01'2 0.1
2018-Apr-22 00:46S 06°48' E 113°01'10 2.2
2018-Apr-21 20:21S 06°49' E 112°51'4 6.4
2018-Apr-21 19:44S 06°48' E 112°47'8 6.2
2018-Apr-21 18:31S 06°47' E 112°39'0 7.2
2018-Apr-21 18:30S 06°47' E 112°39'3 6.0
2018-Apr-21 17:59S 06°47' E 112°36'  
2018-Apr-19 00:39S 06°51' E 113°02'0 3.1
2018-Apr-19 00:30S 06°52' E 113°02'0 0.2
2018-Apr-18 23:44S 06°52' E 113°02'0 0.0
2018-Apr-18 23:23S 06°52' E 113°02'0 0.0
2018-Apr-18 22:58S 06°52' E 113°02'0 0.0
2018-Apr-18 22:23S 06°52' E 113°02'0 0.0
2018-Apr-18 21:57S 06°52' E 113°02'0 0.0
2018-Apr-18 18:12S 06°52' E 113°02'0 0.0
2018-Apr-18 17:15S 06°52' E 113°02'0 0.0
2018-Apr-18 16:59S 06°52' E 113°02'0 0.0
2018-Apr-18 14:49S 06°52' E 113°02'0 0.0
2018-Apr-18 14:30S 06°52' E 113°02'0 0.0
2018-Apr-18 14:00S 06°52' E 113°02'0 0.0
2018-Apr-18 13:30S 06°52' E 113°02'0 0.0
2018-Apr-18 13:00S 06°52' E 113°02'0 0.0
2018-Apr-18 12:30S 06°52' E 113°02'0 0.0
2018-Apr-18 12:00S 06°52' E 113°02'0 0.0
2018-Apr-18 10:59S 06°52' E 113°02'0 0.0
2018-Apr-18 10:27S 06°52' E 113°02'0 0.0
2018-Apr-18 10:00S 06°52' E 113°02'0 0.0
2018-Apr-18 09:29S 06°52' E 113°02'0 0.0
2018-Apr-18 08:58S 06°52' E 113°02'0 0.0
2018-Apr-18 08:30S 06°52' E 113°02'0 0.0
2018-Apr-18 07:57S 06°52' E 113°02'0 0.0
2018-Apr-18 07:26S 06°52' E 113°02'0 0.0
2018-Apr-18 06:54S 06°52' E 113°02'0 0.0
2018-Apr-18 06:27S 06°52' E 113°02'0 0.0
2018-Apr-18 05:57S 06°52' E 113°02'0 0.0
2018-Apr-18 05:28S 06°52' E 113°02'0 0.0
2018-Apr-18 05:00S 06°52' E 113°02'0 0.0
2018-Apr-18 04:28S 06°52' E 113°02'0 0.0
2018-Apr-18 03:52S 06°52' E 113°02'0 0.0
2018-Apr-18 03:17S 06°52' E 113°02'0 0.0
2018-Apr-18 02:37S 06°52' E 113°02'0 0.0
2018-Apr-18 02:13S 06°52' E 113°02'0 0.0
2018-Apr-18 01:58S 06°52' E 113°02'0 0.0
2018-Apr-18 01:27S 06°52' E 113°02'0 0.0
2018-Apr-18 00:58S 06°52' E 113°02'0 0.0
2018-Apr-18 00:27S 06°52' E 113°02'0 0.0
2018-Apr-17 23:55S 06°52' E 113°02'0 0.0
2018-Apr-17 23:19S 06°52' E 113°02'0 0.0
2018-Apr-17 22:57S 06°52' E 113°02'0 0.0
2018-Apr-17 22:29S 06°52' E 113°02'0 0.0
2018-Apr-17 21:59S 06°52' E 113°02'0 0.0
2018-Apr-17 21:19S 06°52' E 113°02'0 0.0
2018-Apr-17 20:57S 06°52' E 113°02'0 0.0
2018-Apr-17 20:30S 06°52' E 113°02'0 0.0
2018-Apr-17 19:59S 06°52' E 113°02'0 0.0
2018-Apr-17 17:37S 06°52' E 113°02'0 0.0
2018-Apr-17 16:48S 06°52' E 113°02'0 0.0
2018-Apr-17 14:50S 06°52' E 113°02'0 0.0
2018-Apr-17 14:25S 06°52' E 113°02'0 0.0
2018-Apr-17 13:36S 06°52' E 113°02'0 0.0
2018-Apr-17 02:00S 06°52' E 113°02'0 0.0
2018-Apr-17 01:22S 06°52' E 113°02'0 0.0
2018-Apr-16 23:35S 06°52' E 113°02'0 0.0
2018-Apr-16 23:29S 06°52' E 113°02'0 0.0
2018-Apr-16 22:49S 06°52' E 113°02'0 0.0
2018-Apr-16 22:27S 06°52' E 113°02'0 0.0
2018-Apr-16 21:43S 06°52' E 113°02'0 0.0
2018-Apr-16 21:20S 06°52' E 113°02'0 0.0
2018-Apr-16 20:52S 06°52' E 113°02'0 0.0
2018-Apr-16 14:42S 06°52' E 113°02'0 0.0
2018-Apr-16 14:28S 06°52' E 113°02'0 0.0
2018-Apr-16 13:56S 06°52' E 113°02'0 0.0
2018-Apr-15 23:46S 06°52' E 113°02'0 0.0
2018-Apr-15 23:30S 06°52' E 113°02'0 0.0
2018-Apr-15 22:54S 06°52' E 113°02'0 0.0
2018-Apr-15 21:55S 06°52' E 113°02'0 0.0
2018-Apr-15 20:55S 06°52' E 113°02'0 0.0
2018-Apr-15 20:29S 06°52' E 113°02'0 0.0
2018-Apr-15 19:40S 06°52' E 113°02'0 0.0
2018-Apr-15 19:30S 06°52' E 113°02'0 0.0
2018-Apr-15 18:51S 06°52' E 113°02'0 0.0
2018-Apr-15 16:05S 06°52' E 113°02'0 0.0
2018-Apr-15 15:29S 06°52' E 113°02'0 0.0
2018-Apr-15 14:59S 06°52' E 113°02'0 0.0
2018-Apr-15 14:29S 06°52' E 113°02'0 0.0
2018-Apr-15 14:00S 06°52' E 113°02'0 0.0
2018-Apr-15 13:31S 06°52' E 113°02'0 0.0
2018-Apr-15 11:54S 06°52' E 113°02'0 0.0
2018-Apr-15 11:24S 06°52' E 113°02'0 0.0
2018-Apr-15 10:55S 06°52' E 113°02'0 0.0
2018-Apr-15 09:45S 06°52' E 113°02'0 0.0
2018-Apr-15 09:13S 06°52' E 113°02'0 0.0
2018-Apr-15 08:59S 06°52' E 113°02'0 0.0
2018-Apr-15 06:56S 06°52' E 113°02'2 0.3
2018-Apr-14 23:52S 06°51' E 113°03'0 0.1
2018-Apr-14 23:23S 06°51' E 113°03'0 0.1
2018-Apr-14 22:59S 06°51' E 113°03'0 0.1
2018-Apr-14 22:29S 06°51' E 113°03'0 0.0
2018-Apr-14 21:57S 06°51' E 113°03'0 0.0
2018-Apr-14 21:26S 06°51' E 113°03'0 0.0
2018-Apr-14 20:59S 06°51' E 113°03'0 0.0
2018-Apr-14 20:30S 06°51' E 113°03'0 0.0
2018-Apr-14 19:59S 06°51' E 113°03'1 0.5
2018-Apr-14 19:02S 06°50' E 113°02'1 5.5
2018-Apr-14 18:50S 06°50' E 113°01'2 5.9
2018-Apr-14 18:30S 06°50' E 112°59'7 6.1
2018-Apr-14 17:20S 06°49' E 112°52'2 6.3
2018-Apr-14 16:59S 06°49' E 112°50'  
Track history (hours):
 
Tides and Currents Weather Stations Pressure Air Temp Water Temp Dewpoint Dewpoint Depression Visibility Wind Speed Wind Dir Waves Ship Positions

Sv.trijaya 2

Last reported at 2018-Apr-24 16:53 UTC. Time now 2018-Apr-24 18:31 UTC.
Position S 06°52' E 113°02'.

; draft 3 m.

Type: Tug. MMSI: 525015849.

Date/timePositionNaut miles runAvg speedWind from/ knotsBaromVisibWave heightAir tempDewpointWater temp
2018-Apr-24 16:53S 06°52' E 113°02'0 0.0
2018-Apr-24 16:17S 06°52' E 113°02'0 0.0
2018-Apr-24 15:59S 06°52' E 113°02'0 0.0
2018-Apr-24 15:30S 06°52' E 113°02'0 0.0
2018-Apr-24 14:59S 06°52' E 113°02'0 0.0
2018-Apr-24 14:25S 06°52' E 113°02'0 0.0
2018-Apr-24 13:11S 06°52' E 113°02'0 0.0
2018-Apr-24 12:49S 06°52' E 113°02'0 0.0
2018-Apr-24 12:22S 06°52' E 113°02'0 0.0
2018-Apr-24 12:00S 06°52' E 113°02'0 0.0
2018-Apr-24 11:25S 06°52' E 113°02'0 0.0
2018-Apr-24 10:55S 06°52' E 113°02'0 0.0
2018-Apr-24 10:11S 06°52' E 113°02'0 0.0
2018-Apr-24 09:52S 06°52' E 113°02'0 0.0
2018-Apr-24 09:19S 06°52' E 113°02'0 0.0
2018-Apr-24 03:43S 06°52' E 113°02'0 0.1
2018-Apr-24 02:47S 06°52' E 113°02'1 0.0
2018-Apr-22 18:14S 06°51' E 113°01'1 5.4
2018-Apr-22 18:00S 06°50' E 113°01'2 0.1
2018-Apr-22 00:46S 06°48' E 113°01'10 2.2
2018-Apr-21 20:21S 06°49' E 112°51'4 6.4
2018-Apr-21 19:44S 06°48' E 112°47'8 6.2
2018-Apr-21 18:31S 06°47' E 112°39'0 7.2
2018-Apr-21 18:30S 06°47' E 112°39'3 6.0
2018-Apr-21 17:59S 06°47' E 112°36'  
2018-Apr-19 00:39S 06°51' E 113°02'0 3.1
2018-Apr-19 00:30S 06°52' E 113°02'0 0.2
2018-Apr-18 23:44S 06°52' E 113°02'0 0.0
2018-Apr-18 23:23S 06°52' E 113°02'0 0.0
2018-Apr-18 22:58S 06°52' E 113°02'0 0.0
2018-Apr-18 22:23S 06°52' E 113°02'0 0.0
2018-Apr-18 21:57S 06°52' E 113°02'0 0.0
2018-Apr-18 18:12S 06°52' E 113°02'0 0.0
2018-Apr-18 17:15S 06°52' E 113°02'0 0.0
2018-Apr-18 16:59S 06°52' E 113°02'0 0.0
2018-Apr-18 14:49S 06°52' E 113°02'0 0.0
2018-Apr-18 14:30S 06°52' E 113°02'0 0.0
2018-Apr-18 14:00S 06°52' E 113°02'0 0.0
2018-Apr-18 13:30S 06°52' E 113°02'0 0.0
2018-Apr-18 13:00S 06°52' E 113°02'0 0.0
2018-Apr-18 12:30S 06°52' E 113°02'0 0.0
2018-Apr-18 12:00S 06°52' E 113°02'0 0.0
2018-Apr-18 10:59S 06°52' E 113°02'0 0.0
2018-Apr-18 10:27S 06°52' E 113°02'0 0.0
2018-Apr-18 10:00S 06°52' E 113°02'0 0.0
2018-Apr-18 09:29S 06°52' E 113°02'0 0.0
2018-Apr-18 08:58S 06°52' E 113°02'0 0.0
2018-Apr-18 08:30S 06°52' E 113°02'0 0.0
2018-Apr-18 07:57S 06°52' E 113°02'0 0.0
2018-Apr-18 07:26S 06°52' E 113°02'0 0.0
2018-Apr-18 06:54S 06°52' E 113°02'0 0.0
2018-Apr-18 06:27S 06°52' E 113°02'0 0.0
2018-Apr-18 05:57S 06°52' E 113°02'0 0.0
2018-Apr-18 05:28S 06°52' E 113°02'0 0.0
2018-Apr-18 05:00S 06°52' E 113°02'0 0.0
2018-Apr-18 04:28S 06°52' E 113°02'0 0.0
2018-Apr-18 03:52S 06°52' E 113°02'0 0.0
2018-Apr-18 03:17S 06°52' E 113°02'0 0.0
2018-Apr-18 02:37S 06°52' E 113°02'0 0.0
2018-Apr-18 02:13S 06°52' E 113°02'0 0.0
2018-Apr-18 01:58S 06°52' E 113°02'0 0.0
2018-Apr-18 01:27S 06°52' E 113°02'0 0.0
2018-Apr-18 00:58S 06°52' E 113°02'0 0.0
2018-Apr-18 00:27S 06°52' E 113°02'0 0.0
2018-Apr-17 23:55S 06°52' E 113°02'0 0.0
2018-Apr-17 23:19S 06°52' E 113°02'0 0.0
2018-Apr-17 22:57S 06°52' E 113°02'0 0.0
2018-Apr-17 22:29S 06°52' E 113°02'0 0.0
2018-Apr-17 21:59S 06°52' E 113°02'0 0.0
2018-Apr-17 21:19S 06°52' E 113°02'0 0.0
2018-Apr-17 20:57S 06°52' E 113°02'0 0.0
2018-Apr-17 20:30S 06°52' E 113°02'0 0.0
2018-Apr-17 19:59S 06°52' E 113°02'0 0.0
2018-Apr-17 17:37S 06°52' E 113°02'0 0.0
2018-Apr-17 16:48S 06°52' E 113°02'0 0.0
2018-Apr-17 14:50S 06°52' E 113°02'0 0.0
2018-Apr-17 14:25S 06°52' E 113°02'0 0.0
2018-Apr-17 13:36S 06°52' E 113°02'0 0.0
2018-Apr-17 02:00S 06°52' E 113°02'0 0.0
2018-Apr-17 01:22S 06°52' E 113°02'0 0.0
2018-Apr-16 23:35S 06°52' E 113°02'0 0.0
2018-Apr-16 23:29S 06°52' E 113°02'0 0.0
2018-Apr-16 22:49S 06°52' E 113°02'0 0.0
2018-Apr-16 22:27S 06°52' E 113°02'0 0.0
2018-Apr-16 21:43S 06°52' E 113°02'0 0.0
2018-Apr-16 21:20S 06°52' E 113°02'0 0.0
2018-Apr-16 20:52S 06°52' E 113°02'0 0.0
2018-Apr-16 14:42S 06°52' E 113°02'0 0.0
2018-Apr-16 14:28S 06°52' E 113°02'0 0.0
2018-Apr-16 13:56S 06°52' E 113°02'0 0.0
2018-Apr-15 23:46S 06°52' E 113°02'0 0.0
2018-Apr-15 23:30S 06°52' E 113°02'0 0.0
2018-Apr-15 22:54S 06°52' E 113°02'0 0.0
2018-Apr-15 21:55S 06°52' E 113°02'0 0.0
2018-Apr-15 20:55S 06°52' E 113°02'0 0.0
2018-Apr-15 20:29S 06°52' E 113°02'0 0.0
2018-Apr-15 19:40S 06°52' E 113°02'0 0.0
2018-Apr-15 19:30S 06°52' E 113°02'0 0.0
2018-Apr-15 18:51S 06°52' E 113°02'0 0.0
2018-Apr-15 16:05S 06°52' E 113°02'0 0.0
2018-Apr-15 15:29S 06°52' E 113°02'0 0.0
2018-Apr-15 14:59S 06°52' E 113°02'0 0.0
2018-Apr-15 14:29S 06°52' E 113°02'0 0.0
2018-Apr-15 14:00S 06°52' E 113°02'0 0.0
2018-Apr-15 13:31S 06°52' E 113°02'0 0.0
2018-Apr-15 11:54S 06°52' E 113°02'0 0.0
2018-Apr-15 11:24S 06°52' E 113°02'0 0.0
2018-Apr-15 10:55S 06°52' E 113°02'0 0.0
2018-Apr-15 09:45S 06°52' E 113°02'0 0.0
2018-Apr-15 09:13S 06°52' E 113°02'0 0.0
2018-Apr-15 08:59S 06°52' E 113°02'0 0.0
2018-Apr-15 06:56S 06°52' E 113°02'2 0.3
2018-Apr-14 23:52S 06°51' E 113°03'0 0.1
2018-Apr-14 23:23S 06°51' E 113°03'0 0.1
2018-Apr-14 22:59S 06°51' E 113°03'0 0.1
2018-Apr-14 22:29S 06°51' E 113°03'0 0.0
2018-Apr-14 21:57S 06°51' E 113°03'0 0.0
2018-Apr-14 21:26S 06°51' E 113°03'0 0.0
2018-Apr-14 20:59S 06°51' E 113°03'0 0.0
2018-Apr-14 20:30S 06°51' E 113°03'0 0.0
2018-Apr-14 19:59S 06°51' E 113°03'1 0.5
2018-Apr-14 19:02S 06°50' E 113°02'1 5.5
2018-Apr-14 18:50S 06°50' E 113°01'2 5.9
2018-Apr-14 18:30S 06°50' E 112°59'7 6.1
2018-Apr-14 17:20S 06°49' E 112°52'2 6.3
2018-Apr-14 16:59S 06°49' E 112°50'  

Dump ship's entire track history